Abercanaid, United Kingdom
Current Conditions -  °F | °C
As of 1:20 AM on Friday 28 Nov 2014 (Local Time) from EGFF Reporting Station
Haze Haze  
Wind Chill: 40°   Ceiling: Unl
Heat Index: 46°   Visibility: 2.8mi
Dew Point: 46°   Wind: 15mph
Humidity: 100%   Direction: 70°ENE
Pressure: 29.47"   Gusts: NA
Location:  51.72°N, 3.37°W
Report Text: EGFF 280120Z AUTO 07013KT 4500 BR SCT004 08/08 Q0998
Loading
Personal Weather Stations






























Interactive Weather Map New forecast layout! Learn more

10-Day Weather Forecast

Advertisements
Track Severe Weather on mobile